Strona główna
METAR-TAF:

METAR-TAF

Lotnisko :

Port lotniczy Southampton

Southampton, Anglia

Szerokość geograficzna: 50-54N, Długość geograficzna: 001-24W, wysokość: 9 m

Aktualna obserwacja pogody

Raport powstał 18 godziny i 3 minut temu, godzina 13:20 UTC
Wiatr 2 kt z kierunków zmiennych
Temperatura 24°C
Wilgotność 41%
Ciśnienie 1034 hPa
Widzialność 10 km lub więcej
Rozproszone chmury na wysokości 4800 ft

METAR: EGHI 271320Z VRB02KT 9999 SCT048 24/10 Q1034

czas: 08:23 (07:23 UTC)

Prognoza

Raport powstał 17 godziny i 23 minut temu, godzina 14:00 UTC
Prognoza ważna od 27 godzina 15 UTC do 27 godzina 19 UTC
Wiatr 3 kt z kierunków zmiennych
Widzialność 10 km lub więcej
Mało chmury na wysokości 4500 ft

TAF: EGHI 271400Z 2715/2719 VRB03KT 9999 FEW045

Obserwacja i prognoza pogody dla ponad 4000 lotnisk (raport METAR i TAF).

Dostępne stacje oznaczono żółtymi i czerwonymi punktami na mapie.

Najedź kursorem aby zobaczyć nazwę stacji.

Kliknij aby zobaczyć obserwacje i prognozy pogody.

Aby zmienić mapę: kliknij na zielony przycisk z czarnym krzyżykiem, aby powiększyć; na zielony przycisk z myślnikiem, aby pomniejszyć; na zielone strzałki, aby przejść do map sąsiednich.


METAR-TAF: